sensor_id;sensor_type;location;lat;lon;timestamp;P1;durP1;ratioP1;P2;durP2;ratioP2
56860;SDS011;42744;51.094;3.490;2023-12-07T00:01:56;53.73;;;13.53;;
56860;SDS011;42744;51.094;3.490;2023-12-07T00:04:22;115.27;;;20.27;;
56860;SDS011;42744;51.094;3.490;2023-12-07T00:06:48;171.60;;;20.50;;
56860;SDS011;42744;51.094;3.490;2023-12-07T00:09:13;103.43;;;17.40;;
56860;SDS011;42744;51.094;3.490;2023-12-07T00:11:40;72.07;;;14.43;;
56860;SDS011;42744;51.094;3.490;2023-12-07T00:14:06;67.13;;;16.33;;
56860;SDS011;42744;51.094;3.490;2023-12-07T00:16:32;108.97;;;14.87;;
56860;SDS011;42744;51.094;3.490;2023-12-07T00:18:58;80.77;;;16.33;;
56860;SDS011;42744;51.094;3.490;2023-12-07T00:21:24;116.03;;;19.23;;
56860;SDS011;42744;51.094;3.490;2023-12-07T00:23:50;126.13;;;17.33;;
56860;SDS011;42744;51.094;3.490;2023-12-07T00:26:16;88.17;;;14.57;;
56860;SDS011;42744;51.094;3.490;2023-12-07T00:28:42;81.57;;;16.63;;
56860;SDS011;42744;51.094;3.490;2023-12-07T00:31:08;65.73;;;14.03;;
56860;SDS011;42744;51.094;3.490;2023-12-07T00:33:36;115.30;;;16.37;;
56860;SDS011;42744;51.094;3.490;2023-12-07T00:36:02;64.03;;;13.77;;
56860;SDS011;42744;51.094;3.490;2023-12-07T00:38:29;97.33;;;16.03;;
56860;SDS011;42744;51.094;3.490;2023-12-07T00:40:57;89.57;;;15.57;;
56860;SDS011;42744;51.094;3.490;2023-12-07T00:43:23;98.33;;;16.80;;
56860;SDS011;42744;51.094;3.490;2023-12-07T00:45:49;88.07;;;15.70;;
56860;SDS011;42744;51.094;3.490;2023-12-07T00:48:15;117.00;;;17.10;;
56860;SDS011;42744;51.094;3.490;2023-12-07T00:50:41;134.00;;;19.10;;
56860;SDS011;42744;51.094;3.490;2023-12-07T00:53:07;70.90;;;12.97;;
56860;SDS011;42744;51.094;3.490;2023-12-07T00:55:34;103.40;;;16.17;;
56860;SDS011;42744;51.094;3.490;2023-12-07T00:58:00;93.20;;;16.33;;
56860;SDS011;42744;51.094;3.490;2023-12-07T01:00:27;65.30;;;14.40;;
56860;SDS011;42744;51.094;3.490;2023-12-07T01:02:53;87.27;;;14.00;;
56860;SDS011;42744;51.094;3.490;2023-12-07T01:05:19;117.37;;;19.00;;
56860;SDS011;42744;51.094;3.490;2023-12-07T01:07:50;93.73;;;14.90;;
56860;SDS011;42744;51.094;3.490;2023-12-07T01:10:16;82.30;;;16.23;;
56860;SDS011;42744;51.094;3.490;2023-12-07T01:12:42;99.20;;;16.83;;
56860;SDS011;42744;51.094;3.490;2023-12-07T01:15:08;100.93;;;15.30;;
56860;SDS011;42744;51.094;3.490;2023-12-07T01:17:34;80.93;;;15.53;;
56860;SDS011;42744;51.094;3.490;2023-12-07T01:20:00;62.90;;;16.30;;
56860;SDS011;42744;51.094;3.490;2023-12-07T01:22:26;64.40;;;14.97;;
56860;SDS011;42744;51.094;3.490;2023-12-07T01:24:52;52.40;;;13.60;;
56860;SDS011;42744;51.094;3.490;2023-12-07T01:27:18;77.30;;;15.53;;
56860;SDS011;42744;51.094;3.490;2023-12-07T01:29:43;60.23;;;16.43;;
56860;SDS011;42744;51.094;3.490;2023-12-07T01:32:10;69.57;;;16.30;;
56860;SDS011;42744;51.094;3.490;2023-12-07T01:34:37;104.10;;;17.17;;
56860;SDS011;42744;51.094;3.490;2023-12-07T01:37:06;71.57;;;15.63;;
56860;SDS011;42744;51.094;3.490;2023-12-07T01:39:33;62.07;;;15.83;;
56860;SDS011;42744;51.094;3.490;2023-12-07T01:42:00;90.40;;;17.33;;
56860;SDS011;42744;51.094;3.490;2023-12-07T01:44:26;79.13;;;17.03;;
56860;SDS011;42744;51.094;3.490;2023-12-07T01:46:53;88.07;;;18.00;;
56860;SDS011;42744;51.094;3.490;2023-12-07T01:49:19;86.67;;;17.23;;
56860;SDS011;42744;51.094;3.490;2023-12-07T01:51:45;90.73;;;18.20;;
56860;SDS011;42744;51.094;3.490;2023-12-07T01:54:12;97.70;;;17.33;;
56860;SDS011;42744;51.094;3.490;2023-12-07T01:56:38;107.27;;;18.70;;
56860;SDS011;42744;51.094;3.490;2023-12-07T01:59:04;97.10;;;17.80;;
56860;SDS011;42744;51.094;3.490;2023-12-07T02:01:30;106.60;;;19.77;;
56860;SDS011;42744;51.094;3.490;2023-12-07T02:03:56;112.80;;;18.87;;
56860;SDS011;42744;51.094;3.490;2023-12-07T02:06:22;97.93;;;19.90;;
56860;SDS011;42744;51.094;3.490;2023-12-07T02:08:48;110.90;;;18.57;;
56860;SDS011;42744;51.094;3.490;2023-12-07T02:11:14;108.03;;;19.70;;
56860;SDS011;42744;51.094;3.490;2023-12-07T02:13:40;94.83;;;19.70;;
56860;SDS011;42744;51.094;3.490;2023-12-07T02:16:08;125.53;;;19.70;;
56860;SDS011;42744;51.094;3.490;2023-12-07T02:18:42;124.17;;;20.30;;
56860;SDS011;42744;51.094;3.490;2023-12-07T02:21:34;141.63;;;21.87;;
56860;SDS011;42744;51.094;3.490;2023-12-07T02:24:17;109.00;;;21.00;;
56860;SDS011;42744;51.094;3.490;2023-12-07T02:26:46;117.97;;;21.47;;
56860;SDS011;42744;51.094;3.490;2023-12-07T02:29:13;95.77;;;22.40;;
56860;SDS011;42744;51.094;3.490;2023-12-07T02:31:40;67.60;;;20.13;;
56860;SDS011;42744;51.094;3.490;2023-12-07T02:34:06;87.53;;;20.87;;
56860;SDS011;42744;51.094;3.490;2023-12-07T02:36:32;76.77;;;20.93;;
56860;SDS011;42744;51.094;3.490;2023-12-07T02:39:00;79.13;;;19.30;;
56860;SDS011;42744;51.094;3.490;2023-12-07T02:41:30;74.63;;;19.90;;
56860;SDS011;42744;51.094;3.490;2023-12-07T02:43:57;71.53;;;20.57;;
56860;SDS011;42744;51.094;3.490;2023-12-07T02:46:26;84.23;;;21.83;;
56860;SDS011;42744;51.094;3.490;2023-12-07T02:48:52;70.43;;;19.70;;
56860;SDS011;42744;51.094;3.490;2023-12-07T02:51:18;73.00;;;21.23;;
56860;SDS011;42744;51.094;3.490;2023-12-07T02:53:44;72.20;;;20.77;;
56860;SDS011;42744;51.094;3.490;2023-12-07T02:56:11;74.57;;;20.10;;
56860;SDS011;42744;51.094;3.490;2023-12-07T02:58:36;61.40;;;19.90;;
56860;SDS011;42744;51.094;3.490;2023-12-07T03:01:03;87.50;;;20.93;;
56860;SDS011;42744;51.094;3.490;2023-12-07T03:03:29;67.57;;;20.23;;
56860;SDS011;42744;51.094;3.490;2023-12-07T03:05:55;60.73;;;19.13;;
56860;SDS011;42744;51.094;3.490;2023-12-07T03:08:21;72.57;;;21.03;;
56860;SDS011;42744;51.094;3.490;2023-12-07T03:10:46;74.60;;;19.83;;
56860;SDS011;42744;51.094;3.490;2023-12-07T03:13:12;63.57;;;19.00;;
56860;SDS011;42744;51.094;3.490;2023-12-07T03:15:39;69.37;;;19.80;;
56860;SDS011;42744;51.094;3.490;2023-12-07T03:18:04;63.87;;;19.07;;
56860;SDS011;42744;51.094;3.490;2023-12-07T03:20:31;69.60;;;19.77;;
56860;SDS011;42744;51.094;3.490;2023-12-07T03:22:57;62.30;;;18.10;;
56860;SDS011;42744;51.094;3.490;2023-12-07T03:25:23;63.33;;;19.67;;
56860;SDS011;42744;51.094;3.490;2023-12-07T03:27:49;55.63;;;18.67;;
56860;SDS011;42744;51.094;3.490;2023-12-07T03:30:15;89.67;;;19.90;;
56860;SDS011;42744;51.094;3.490;2023-12-07T03:32:40;67.03;;;19.17;;
56860;SDS011;42744;51.094;3.490;2023-12-07T03:35:06;64.10;;;18.53;;
56860;SDS011;42744;51.094;3.490;2023-12-07T03:37:32;69.20;;;18.97;;
56860;SDS011;42744;51.094;3.490;2023-12-07T03:39:58;74.73;;;19.60;;
56860;SDS011;42744;51.094;3.490;2023-12-07T03:42:24;69.77;;;20.23;;
56860;SDS011;42744;51.094;3.490;2023-12-07T03:44:53;62.87;;;18.53;;
56860;SDS011;42744;51.094;3.490;2023-12-07T03:47:19;68.93;;;18.03;;
56860;SDS011;42744;51.094;3.490;2023-12-07T03:49:45;57.43;;;18.17;;
56860;SDS011;42744;51.094;3.490;2023-12-07T03:52:11;62.07;;;18.13;;
56860;SDS011;42744;51.094;3.490;2023-12-07T03:54:37;66.70;;;18.40;;
56860;SDS011;42744;51.094;3.490;2023-12-07T03:57:03;55.73;;;16.50;;
56860;SDS011;42744;51.094;3.490;2023-12-07T03:59:30;58.40;;;17.10;;
56860;SDS011;42744;51.094;3.490;2023-12-07T04:01:56;54.67;;;17.33;;
56860;SDS011;42744;51.094;3.490;2023-12-07T04:04:22;71.77;;;18.53;;
56860;SDS011;42744;51.094;3.490;2023-12-07T04:06:48;56.13;;;18.33;;
56860;SDS011;42744;51.094;3.490;2023-12-07T04:09:13;64.33;;;18.73;;
56860;SDS011;42744;51.094;3.490;2023-12-07T04:11:40;58.10;;;17.80;;
56860;SDS011;42744;51.094;3.490;2023-12-07T04:14:05;64.73;;;17.80;;
56860;SDS011;42744;51.094;3.490;2023-12-07T04:16:31;56.37;;;18.17;;
56860;SDS011;42744;51.094;3.490;2023-12-07T04:18:57;53.23;;;18.57;;
56860;SDS011;42744;51.094;3.490;2023-12-07T04:21:23;56.13;;;17.37;;
56860;SDS011;42744;51.094;3.490;2023-12-07T04:23:49;60.30;;;17.50;;
56860;SDS011;42744;51.094;3.490;2023-12-07T04:26:15;50.47;;;17.17;;
56860;SDS011;42744;51.094;3.490;2023-12-07T04:28:41;48.10;;;17.07;;
56860;SDS011;42744;51.094;3.490;2023-12-07T04:31:07;55.27;;;17.77;;
56860;SDS011;42744;51.094;3.490;2023-12-07T04:33:33;52.87;;;17.50;;
56860;SDS011;42744;51.094;3.490;2023-12-07T04:35:59;55.27;;;17.93;;
56860;SDS011;42744;51.094;3.490;2023-12-07T04:38:25;61.10;;;19.40;;
56860;SDS011;42744;51.094;3.490;2023-12-07T04:40:51;52.93;;;17.70;;
56860;SDS011;42744;51.094;3.490;2023-12-07T04:43:17;59.03;;;18.07;;
56860;SDS011;42744;51.094;3.490;2023-12-07T04:45:42;54.73;;;18.33;;
56860;SDS011;42744;51.094;3.490;2023-12-07T04:48:09;59.67;;;19.00;;
56860;SDS011;42744;51.094;3.490;2023-12-07T04:50:34;57.47;;;18.37;;
56860;SDS011;42744;51.094;3.490;2023-12-07T04:53:00;66.47;;;20.07;;
56860;SDS011;42744;51.094;3.490;2023-12-07T04:55:26;58.93;;;19.07;;
56860;SDS011;42744;51.094;3.490;2023-12-07T04:57:52;56.70;;;17.77;;
56860;SDS011;42744;51.094;3.490;2023-12-07T05:00:18;56.13;;;18.77;;
56860;SDS011;42744;51.094;3.490;2023-12-07T05:02:45;53.50;;;18.23;;
56860;SDS011;42744;51.094;3.490;2023-12-07T05:05:11;51.17;;;17.23;;
56860;SDS011;42744;51.094;3.490;2023-12-07T05:07:37;49.27;;;17.40;;
56860;SDS011;42744;51.094;3.490;2023-12-07T05:10:03;46.30;;;17.47;;
56860;SDS011;42744;51.094;3.490;2023-12-07T05:12:29;47.70;;;17.93;;
56860;SDS011;42744;51.094;3.490;2023-12-07T05:14:55;46.87;;;17.10;;
56860;SDS011;42744;51.094;3.490;2023-12-07T05:17:21;50.73;;;18.37;;
56860;SDS011;42744;51.094;3.490;2023-12-07T05:19:47;47.10;;;18.87;;
56860;SDS011;42744;51.094;3.490;2023-12-07T05:22:13;46.60;;;17.80;;
56860;SDS011;42744;51.094;3.490;2023-12-07T05:24:40;48.70;;;18.43;;
56860;SDS011;42744;51.094;3.490;2023-12-07T05:27:05;45.00;;;17.93;;
56860;SDS011;42744;51.094;3.490;2023-12-07T05:29:31;45.27;;;19.73;;
56860;SDS011;42744;51.094;3.490;2023-12-07T05:31:58;52.33;;;19.90;;
56860;SDS011;42744;51.094;3.490;2023-12-07T05:34:23;42.17;;;19.03;;
56860;SDS011;42744;51.094;3.490;2023-12-07T05:36:49;49.70;;;18.90;;
56860;SDS011;42744;51.094;3.490;2023-12-07T05:39:15;44.03;;;18.03;;
56860;SDS011;42744;51.094;3.490;2023-12-07T05:41:42;45.97;;;18.90;;
56860;SDS011;42744;51.094;3.490;2023-12-07T05:44:08;44.23;;;19.93;;
56860;SDS011;42744;51.094;3.490;2023-12-07T05:46:35;42.10;;;18.57;;
56860;SDS011;42744;51.094;3.490;2023-12-07T05:49:01;42.03;;;20.23;;
56860;SDS011;42744;51.094;3.490;2023-12-07T05:51:27;40.90;;;18.50;;
56860;SDS011;42744;51.094;3.490;2023-12-07T05:53:53;43.33;;;18.93;;
56860;SDS011;42744;51.094;3.490;2023-12-07T05:56:19;39.00;;;18.77;;
56860;SDS011;42744;51.094;3.490;2023-12-07T05:58:45;42.57;;;18.67;;
56860;SDS011;42744;51.094;3.490;2023-12-07T06:01:16;38.73;;;18.30;;
56860;SDS011;42744;51.094;3.490;2023-12-07T06:03:43;34.50;;;17.70;;
56860;SDS011;42744;51.094;3.490;2023-12-07T06:06:10;39.70;;;17.23;;
56860;SDS011;42744;51.094;3.490;2023-12-07T06:08:37;35.77;;;18.57;;
56860;SDS011;42744;51.094;3.490;2023-12-07T06:11:03;37.37;;;18.47;;
56860;SDS011;42744;51.094;3.490;2023-12-07T06:13:29;36.43;;;17.23;;
56860;SDS011;42744;51.094;3.490;2023-12-07T06:15:55;36.43;;;18.73;;
56860;SDS011;42744;51.094;3.490;2023-12-07T06:18:21;35.10;;;17.67;;
56860;SDS011;42744;51.094;3.490;2023-12-07T06:20:47;32.57;;;16.70;;
56860;SDS011;42744;51.094;3.490;2023-12-07T06:23:13;35.23;;;17.23;;
56860;SDS011;42744;51.094;3.490;2023-12-07T06:25:39;31.07;;;16.03;;
56860;SDS011;42744;51.094;3.490;2023-12-07T06:28:05;31.53;;;16.33;;
56860;SDS011;42744;51.094;3.490;2023-12-07T06:30:31;34.93;;;17.27;;
56860;SDS011;42744;51.094;3.490;2023-12-07T06:32:57;32.50;;;16.50;;
56860;SDS011;42744;51.094;3.490;2023-12-07T06:35:23;32.77;;;16.60;;
56860;SDS011;42744;51.094;3.490;2023-12-07T06:37:49;32.83;;;17.57;;
56860;SDS011;42744;51.094;3.490;2023-12-07T06:40:15;31.43;;;16.30;;
56860;SDS011;42744;51.094;3.490;2023-12-07T06:42:41;32.73;;;17.10;;
56860;SDS011;42744;51.094;3.490;2023-12-07T06:45:07;31.23;;;15.20;;
56860;SDS011;42744;51.094;3.490;2023-12-07T06:47:39;33.40;;;15.97;;
56860;SDS011;42744;51.094;3.490;2023-12-07T06:50:08;27.07;;;15.03;;
56860;SDS011;42744;51.094;3.490;2023-12-07T06:52:35;31.00;;;15.90;;
56860;SDS011;42744;51.094;3.490;2023-12-07T06:55:05;31.43;;;15.97;;
56860;SDS011;42744;51.094;3.490;2023-12-07T06:57:32;33.47;;;15.60;;
56860;SDS011;42744;51.094;3.490;2023-12-07T07:00:01;33.83;;;15.73;;
56860;SDS011;42744;51.094;3.490;2023-12-07T07:02:31;28.40;;;15.23;;
56860;SDS011;42744;51.094;3.490;2023-12-07T07:04:57;31.50;;;15.57;;
56860;SDS011;42744;51.094;3.490;2023-12-07T07:07:23;28.33;;;15.23;;
56860;SDS011;42744;51.094;3.490;2023-12-07T07:09:49;33.60;;;15.57;;
56860;SDS011;42744;51.094;3.490;2023-12-07T07:12:15;24.17;;;14.47;;
56860;SDS011;42744;51.094;3.490;2023-12-07T07:14:41;27.20;;;15.50;;
56860;SDS011;42744;51.094;3.490;2023-12-07T07:17:07;25.67;;;14.27;;
56860;SDS011;42744;51.094;3.490;2023-12-07T07:19:33;27.10;;;14.43;;
56860;SDS011;42744;51.094;3.490;2023-12-07T07:21:59;28.27;;;15.37;;
56860;SDS011;42744;51.094;3.490;2023-12-07T07:24:25;31.57;;;15.47;;
56860;SDS011;42744;51.094;3.490;2023-12-07T07:26:51;32.70;;;15.40;;
56860;SDS011;42744;51.094;3.490;2023-12-07T07:29:17;29.73;;;14.83;;
56860;SDS011;42744;51.094;3.490;2023-12-07T07:31:43;28.10;;;15.53;;
56860;SDS011;42744;51.094;3.490;2023-12-07T07:34:09;31.60;;;15.00;;
56860;SDS011;42744;51.094;3.490;2023-12-07T07:36:35;25.23;;;14.80;;
56860;SDS011;42744;51.094;3.490;2023-12-07T07:39:01;30.73;;;15.97;;
56860;SDS011;42744;51.094;3.490;2023-12-07T07:41:27;29.80;;;15.57;;
56860;SDS011;42744;51.094;3.490;2023-12-07T07:43:53;30.30;;;15.77;;
56860;SDS011;42744;51.094;3.490;2023-12-07T07:46:19;30.03;;;16.60;;
56860;SDS011;42744;51.094;3.490;2023-12-07T07:48:45;33.60;;;16.60;;
56860;SDS011;42744;51.094;3.490;2023-12-07T07:51:10;24.33;;;14.27;;
56860;SDS011;42744;51.094;3.490;2023-12-07T07:53:36;30.30;;;14.27;;
56860;SDS011;42744;51.094;3.490;2023-12-07T07:56:02;26.33;;;14.33;;
56860;SDS011;42744;51.094;3.490;2023-12-07T07:58:28;31.83;;;15.07;;
56860;SDS011;42744;51.094;3.490;2023-12-07T08:00:55;24.80;;;14.60;;
56860;SDS011;42744;51.094;3.490;2023-12-07T08:03:21;28.03;;;15.50;;
56860;SDS011;42744;51.094;3.490;2023-12-07T08:05:47;23.73;;;13.93;;
56860;SDS011;42744;51.094;3.490;2023-12-07T08:08:12;28.30;;;14.70;;
56860;SDS011;42744;51.094;3.490;2023-12-07T08:10:39;32.27;;;15.13;;
56860;SDS011;42744;51.094;3.490;2023-12-07T08:13:04;30.37;;;16.77;;
56860;SDS011;42744;51.094;3.490;2023-12-07T08:15:32;30.37;;;15.03;;
56860;SDS011;42744;51.094;3.490;2023-12-07T08:17:59;28.77;;;14.67;;
56860;SDS011;42744;51.094;3.490;2023-12-07T08:20:25;27.97;;;14.73;;
56860;SDS011;42744;51.094;3.490;2023-12-07T08:22:51;23.70;;;14.57;;
56860;SDS011;42744;51.094;3.490;2023-12-07T08:25:17;26.67;;;15.83;;
56860;SDS011;42744;51.094;3.490;2023-12-07T08:27:43;30.70;;;14.33;;
56860;SDS011;42744;51.094;3.490;2023-12-07T08:30:11;22.70;;;13.90;;
56860;SDS011;42744;51.094;3.490;2023-12-07T08:32:38;31.60;;;14.87;;
56860;SDS011;42744;51.094;3.490;2023-12-07T08:35:04;29.10;;;15.27;;
56860;SDS011;42744;51.094;3.490;2023-12-07T08:37:31;25.37;;;14.43;;
56860;SDS011;42744;51.094;3.490;2023-12-07T08:39:58;25.87;;;14.90;;
56860;SDS011;42744;51.094;3.490;2023-12-07T08:42:24;24.13;;;14.03;;
56860;SDS011;42744;51.094;3.490;2023-12-07T08:44:52;23.93;;;13.27;;
56860;SDS011;42744;51.094;3.490;2023-12-07T08:47:18;30.17;;;15.47;;
56860;SDS011;42744;51.094;3.490;2023-12-07T08:49:44;28.60;;;14.97;;
56860;SDS011;42744;51.094;3.490;2023-12-07T08:52:13;25.67;;;14.47;;
56860;SDS011;42744;51.094;3.490;2023-12-07T08:54:39;26.60;;;14.87;;
56860;SDS011;42744;51.094;3.490;2023-12-07T08:57:05;26.60;;;14.00;;
56860;SDS011;42744;51.094;3.490;2023-12-07T08:59:30;26.27;;;14.00;;
56860;SDS011;42744;51.094;3.490;2023-12-07T09:01:57;30.10;;;14.93;;
56860;SDS011;42744;51.094;3.490;2023-12-07T09:04:23;26.20;;;13.57;;
56860;SDS011;42744;51.094;3.490;2023-12-07T09:06:48;27.87;;;13.53;;
56860;SDS011;42744;51.094;3.490;2023-12-07T09:09:15;24.00;;;13.90;;
56860;SDS011;42744;51.094;3.490;2023-12-07T09:11:40;27.67;;;14.30;;
56860;SDS011;42744;51.094;3.490;2023-12-07T09:14:07;29.27;;;14.60;;
56860;SDS011;42744;51.094;3.490;2023-12-07T09:16:33;25.97;;;15.33;;
56860;SDS011;42744;51.094;3.490;2023-12-07T09:19:00;27.13;;;14.20;;
56860;SDS011;42744;51.094;3.490;2023-12-07T09:21:25;26.87;;;14.30;;
56860;SDS011;42744;51.094;3.490;2023-12-07T09:23:51;27.10;;;12.93;;
56860;SDS011;42744;51.094;3.490;2023-12-07T09:26:17;26.83;;;14.27;;
56860;SDS011;42744;51.094;3.490;2023-12-07T09:28:43;28.23;;;15.00;;
56860;SDS011;42744;51.094;3.490;2023-12-07T09:31:09;26.17;;;13.90;;
56860;SDS011;42744;51.094;3.490;2023-12-07T09:33:35;27.80;;;13.53;;
56860;SDS011;42744;51.094;3.490;2023-12-07T09:36:01;23.73;;;13.43;;
56860;SDS011;42744;51.094;3.490;2023-12-07T09:38:35;30.87;;;14.23;;
56860;SDS011;42744;51.094;3.490;2023-12-07T09:41:02;25.80;;;12.97;;
56860;SDS011;42744;51.094;3.490;2023-12-07T09:43:29;22.67;;;14.17;;
56860;SDS011;42744;51.094;3.490;2023-12-07T09:45:55;26.13;;;14.77;;
56860;SDS011;42744;51.094;3.490;2023-12-07T09:48:23;21.30;;;13.40;;
56860;SDS011;42744;51.094;3.490;2023-12-07T09:50:50;26.73;;;12.87;;
56860;SDS011;42744;51.094;3.490;2023-12-07T09:53:17;21.60;;;12.33;;
56860;SDS011;42744;51.094;3.490;2023-12-07T09:55:43;23.90;;;13.00;;
56860;SDS011;42744;51.094;3.490;2023-12-07T09:58:14;23.73;;;13.93;;
56860;SDS011;42744;51.094;3.490;2023-12-07T10:00:40;22.47;;;12.60;;
56860;SDS011;42744;51.094;3.490;2023-12-07T10:03:09;24.90;;;12.63;;
56860;SDS011;42744;51.094;3.490;2023-12-07T10:05:53;22.33;;;11.57;;
56860;SDS011;42744;51.094;3.490;2023-12-07T10:08:31;20.70;;;12.03;;
56860;SDS011;42744;51.094;3.490;2023-12-07T10:11:08;17.70;;;11.87;;
56860;SDS011;42744;51.094;3.490;2023-12-07T10:13:36;22.97;;;13.80;;
56860;SDS011;42744;51.094;3.490;2023-12-07T10:16:12;22.03;;;13.07;;
56860;SDS011;42744;51.094;3.490;2023-12-07T10:18:44;23.07;;;12.00;;
56860;SDS011;42744;51.094;3.490;2023-12-07T10:21:10;20.63;;;11.50;;
56860;SDS011;42744;51.094;3.490;2023-12-07T10:23:37;22.10;;;11.43;;
56860;SDS011;42744;51.094;3.490;2023-12-07T10:26:05;17.90;;;12.13;;
56860;SDS011;42744;51.094;3.490;2023-12-07T10:28:31;21.53;;;11.57;;
56860;SDS011;42744;51.094;3.490;2023-12-07T10:31:01;18.90;;;11.60;;
56860;SDS011;42744;51.094;3.490;2023-12-07T10:33:27;19.30;;;12.37;;
56860;SDS011;42744;51.094;3.490;2023-12-07T10:35:53;21.27;;;12.80;;
56860;SDS011;42744;51.094;3.490;2023-12-07T10:38:19;21.30;;;11.77;;
56860;SDS011;42744;51.094;3.490;2023-12-07T10:40:46;18.37;;;11.37;;
56860;SDS011;42744;51.094;3.490;2023-12-07T10:43:12;22.67;;;11.17;;
56860;SDS011;42744;51.094;3.490;2023-12-07T10:45:40;18.40;;;11.23;;
56860;SDS011;42744;51.094;3.490;2023-12-07T10:48:09;19.60;;;12.10;;
56860;SDS011;42744;51.094;3.490;2023-12-07T10:50:42;21.17;;;11.77;;
56860;SDS011;42744;51.094;3.490;2023-12-07T10:53:19;16.90;;;11.17;;
56860;SDS011;42744;51.094;3.490;2023-12-07T10:56:00;18.83;;;11.87;;
56860;SDS011;42744;51.094;3.490;2023-12-07T10:58:27;27.30;;;11.80;;
56860;SDS011;42744;51.094;3.490;2023-12-07T11:00:53;19.13;;;10.60;;
56860;SDS011;42744;51.094;3.490;2023-12-07T11:03:19;16.60;;;11.00;;
56860;SDS011;42744;51.094;3.490;2023-12-07T11:05:49;17.37;;;11.13;;
56860;SDS011;42744;51.094;3.490;2023-12-07T11:13:51;24.10;;;11.83;;
56860;SDS011;42744;51.094;3.490;2023-12-07T11:16:28;16.13;;;11.17;;
56860;SDS011;42744;51.094;3.490;2023-12-07T11:19:02;18.83;;;10.60;;
56860;SDS011;42744;51.094;3.490;2023-12-07T11:21:30;17.70;;;10.37;;
56860;SDS011;42744;51.094;3.490;2023-12-07T11:23:59;16.70;;;10.07;;
56860;SDS011;42744;51.094;3.490;2023-12-07T11:26:27;13.40;;;10.43;;
56860;SDS011;42744;51.094;3.490;2023-12-07T11:28:54;16.40;;;10.03;;
56860;SDS011;42744;51.094;3.490;2023-12-07T11:31:21;26.87;;;10.87;;
56860;SDS011;42744;51.094;3.490;2023-12-07T11:33:47;15.43;;;10.93;;
56860;SDS011;42744;51.094;3.490;2023-12-07T11:36:13;14.13;;;9.67;;
56860;SDS011;42744;51.094;3.490;2023-12-07T11:41:35;18.57;;;10.20;;
56860;SDS011;42744;51.094;3.490;2023-12-07T11:44:09;17.97;;;11.03;;
56860;SDS011;42744;51.094;3.490;2023-12-07T11:46:37;15.07;;;10.33;;
56860;SDS011;42744;51.094;3.490;2023-12-07T11:49:03;19.13;;;10.30;;
56860;SDS011;42744;51.094;3.490;2023-12-07T11:51:30;15.40;;;9.57;;
56860;SDS011;42744;51.094;3.490;2023-12-07T11:53:56;19.33;;;9.30;;
56860;SDS011;42744;51.094;3.490;2023-12-07T11:56:22;17.67;;;10.07;;
56860;SDS011;42744;51.094;3.490;2023-12-07T11:58:49;18.53;;;9.83;;
56860;SDS011;42744;51.094;3.490;2023-12-07T12:01:16;14.73;;;8.83;;
56860;SDS011;42744;51.094;3.490;2023-12-07T12:03:43;14.97;;;8.60;;
56860;SDS011;42744;51.094;3.490;2023-12-07T12:06:09;12.80;;;9.47;;
56860;SDS011;42744;51.094;3.490;2023-12-07T12:08:36;14.97;;;9.47;;
56860;SDS011;42744;51.094;3.490;2023-12-07T12:11:04;14.70;;;9.27;;
56860;SDS011;42744;51.094;3.490;2023-12-07T12:13:33;14.10;;;8.87;;
56860;SDS011;42744;51.094;3.490;2023-12-07T12:16:02;13.83;;;8.33;;
56860;SDS011;42744;51.094;3.490;2023-12-07T12:18:29;15.50;;;8.87;;
56860;SDS011;42744;51.094;3.490;2023-12-07T12:20:55;14.43;;;8.90;;
56860;SDS011;42744;51.094;3.490;2023-12-07T12:23:22;12.60;;;8.30;;
56860;SDS011;42744;51.094;3.490;2023-12-07T12:25:48;11.50;;;8.33;;
56860;SDS011;42744;51.094;3.490;2023-12-07T12:28:15;12.80;;;8.83;;
56860;SDS011;42744;51.094;3.490;2023-12-07T12:30:47;12.43;;;8.60;;
56860;SDS011;42744;51.094;3.490;2023-12-07T12:33:13;10.87;;;8.20;;
56860;SDS011;42744;51.094;3.490;2023-12-07T12:35:40;15.43;;;8.87;;
56860;SDS011;42744;51.094;3.490;2023-12-07T12:38:09;13.73;;;8.87;;
56860;SDS011;42744;51.094;3.490;2023-12-07T12:40:39;13.13;;;8.30;;
56860;SDS011;42744;51.094;3.490;2023-12-07T12:43:06;12.13;;;8.73;;
56860;SDS011;42744;51.094;3.490;2023-12-07T12:45:33;13.73;;;9.07;;
56860;SDS011;42744;51.094;3.490;2023-12-07T12:47:59;13.50;;;8.20;;
56860;SDS011;42744;51.094;3.490;2023-12-07T12:50:38;15.43;;;10.00;;
56860;SDS011;42744;51.094;3.490;2023-12-07T12:53:10;13.47;;;8.50;;
56860;SDS011;42744;51.094;3.490;2023-12-07T12:55:39;15.13;;;8.70;;
56860;SDS011;42744;51.094;3.490;2023-12-07T12:58:06;12.47;;;8.10;;
56860;SDS011;42744;51.094;3.490;2023-12-07T13:00:34;11.47;;;7.97;;
56860;SDS011;42744;51.094;3.490;2023-12-07T13:03:04;10.77;;;8.50;;
56860;SDS011;42744;51.094;3.490;2023-12-07T13:05:31;10.60;;;7.47;;
56860;SDS011;42744;51.094;3.490;2023-12-07T13:08:00;12.43;;;7.80;;
56860;SDS011;42744;51.094;3.490;2023-12-07T13:10:27;16.30;;;8.07;;
56860;SDS011;42744;51.094;3.490;2023-12-07T13:12:56;11.37;;;8.17;;
56860;SDS011;42744;51.094;3.490;2023-12-07T13:15:22;13.03;;;7.63;;
56860;SDS011;42744;51.094;3.490;2023-12-07T13:17:50;12.70;;;7.70;;
56860;SDS011;42744;51.094;3.490;2023-12-07T13:20:16;11.30;;;6.80;;
56860;SDS011;42744;51.094;3.490;2023-12-07T13:22:43;11.80;;;7.77;;
56860;SDS011;42744;51.094;3.490;2023-12-07T13:25:09;11.63;;;7.30;;
56860;SDS011;42744;51.094;3.490;2023-12-07T13:27:35;10.43;;;6.67;;
56860;SDS011;42744;51.094;3.490;2023-12-07T13:30:02;9.30;;;6.73;;
56860;SDS011;42744;51.094;3.490;2023-12-07T13:32:35;12.13;;;6.77;;
56860;SDS011;42744;51.094;3.490;2023-12-07T13:35:05;11.23;;;7.23;;
56860;SDS011;42744;51.094;3.490;2023-12-07T13:37:32;12.53;;;7.03;;
56860;SDS011;42744;51.094;3.490;2023-12-07T13:39:59;11.70;;;7.37;;
56860;SDS011;42744;51.094;3.490;2023-12-07T13:42:26;10.03;;;6.50;;
56860;SDS011;42744;51.094;3.490;2023-12-07T13:44:56;9.33;;;6.70;;
56860;SDS011;42744;51.094;3.490;2023-12-07T13:47:23;8.73;;;6.17;;
56860;SDS011;42744;51.094;3.490;2023-12-07T13:49:55;8.60;;;6.30;;
56860;SDS011;42744;51.094;3.490;2023-12-07T13:52:22;9.23;;;5.67;;
56860;SDS011;42744;51.094;3.490;2023-12-07T13:54:48;10.90;;;5.43;;
56860;SDS011;42744;51.094;3.490;2023-12-07T13:57:15;10.23;;;6.40;;
56860;SDS011;42744;51.094;3.490;2023-12-07T13:59:41;7.73;;;5.67;;
56860;SDS011;42744;51.094;3.490;2023-12-07T14:02:07;16.30;;;5.63;;
56860;SDS011;42744;51.094;3.490;2023-12-07T14:04:33;9.43;;;6.03;;
56860;SDS011;42744;51.094;3.490;2023-12-07T14:07:09;11.43;;;6.07;;
56860;SDS011;42744;51.094;3.490;2023-12-07T14:09:40;11.00;;;5.93;;
56860;SDS011;42744;51.094;3.490;2023-12-07T14:12:07;9.70;;;5.80;;
56860;SDS011;42744;51.094;3.490;2023-12-07T14:14:34;12.90;;;5.90;;
56860;SDS011;42744;51.094;3.490;2023-12-07T14:17:00;11.87;;;5.83;;
56860;SDS011;42744;51.094;3.490;2023-12-07T14:19:26;9.73;;;5.67;;
56860;SDS011;42744;51.094;3.490;2023-12-07T14:21:53;10.83;;;5.40;;
56860;SDS011;42744;51.094;3.490;2023-12-07T14:24:20;12.33;;;5.87;;
56860;SDS011;42744;51.094;3.490;2023-12-07T14:26:46;9.17;;;5.37;;
56860;SDS011;42744;51.094;3.490;2023-12-07T14:29:12;9.17;;;5.37;;
56860;SDS011;42744;51.094;3.490;2023-12-07T14:31:41;10.30;;;5.77;;